createdAt,value
2023-12-08T00:00:10.279Z,101835.03
2023-12-08T00:02:39.855Z,101830.22
2023-12-08T00:05:10.797Z,101829.84
2023-12-08T00:07:39.420Z,101829.25
2023-12-08T00:10:08.690Z,101832.63
2023-12-08T00:12:37.521Z,101823.50
2023-12-08T00:15:07.293Z,101816.38
2023-12-08T00:17:35.978Z,101825.31
2023-12-08T00:20:05.329Z,101822.72
2023-12-08T00:22:35.428Z,101830.38
2023-12-08T00:25:04.317Z,101824.94
2023-12-08T00:27:33.125Z,101824.50
2023-12-08T00:30:01.852Z,101826.75
2023-12-08T00:32:34.193Z,101819.84
2023-12-08T00:35:03.339Z,101821.22
2023-12-08T00:37:36.024Z,101829.66
2023-12-08T00:40:06.619Z,101829.25
2023-12-08T00:42:35.632Z,101821.38
2023-12-08T00:45:04.851Z,101818.16
2023-12-08T00:47:34.710Z,101818.31
2023-12-08T00:50:03.497Z,101821.56
2023-12-08T00:52:32.496Z,101816.72
2023-12-08T00:55:02.553Z,101809.56
2023-12-08T00:57:33.600Z,101813.50
2023-12-08T01:00:02.661Z,101810.47
2023-12-08T01:02:33.728Z,101812.00
2023-12-08T01:05:03.783Z,101810.25
2023-12-08T01:07:32.650Z,101809.66
2023-12-08T01:10:02.776Z,101805.16
2023-12-08T01:12:32.700Z,101797.53
2023-12-08T01:15:01.328Z,101796.84
2023-12-08T01:17:32.782Z,101794.25
2023-12-08T01:20:01.433Z,101801.78
2023-12-08T01:22:30.737Z,101795.19
2023-12-08T01:24:59.643Z,101795.38
2023-12-08T01:27:29.792Z,101792.31
2023-12-08T01:29:58.413Z,101787.81
2023-12-08T01:32:27.167Z,101789.16
2023-12-08T01:34:55.732Z,101789.72
2023-12-08T01:37:24.538Z,101781.72
2023-12-08T01:39:53.608Z,101783.91
2023-12-08T01:42:22.193Z,101786.09
2023-12-08T01:44:52.208Z,101779.13
2023-12-08T01:47:20.870Z,101778.91
2023-12-08T01:49:49.515Z,101774.59
2023-12-08T01:52:24.116Z,101783.47
2023-12-08T01:54:56.478Z,101780.91
2023-12-08T01:57:25.615Z,101778.63
2023-12-08T01:59:57.354Z,101778.88
2023-12-08T02:02:26.339Z,101782.00
2023-12-08T02:04:56.835Z,101786.09
2023-12-08T02:07:25.904Z,101783.09
2023-12-08T02:09:54.655Z,101790.03
2023-12-08T02:12:23.325Z,101781.25
2023-12-08T02:14:53.686Z,101777.13
2023-12-08T02:17:26.256Z,101775.72
2023-12-08T02:19:56.035Z,101777.84
2023-12-08T02:22:25.633Z,101776.25
2023-12-08T02:24:56.241Z,101771.59
2023-12-08T02:27:25.313Z,101782.69
2023-12-08T02:29:54.198Z,101773.34
2023-12-08T02:32:25.288Z,101776.44
2023-12-08T02:34:54.821Z,101773.53
2023-12-08T02:37:24.562Z,101772.84
2023-12-08T02:39:56.003Z,101779.13
2023-12-08T02:42:24.748Z,101775.69
2023-12-08T02:44:53.374Z,101781.00
2023-12-08T02:47:22.138Z,101775.16
2023-12-08T02:49:50.987Z,101768.22
2023-12-08T02:52:19.551Z,101767.38
2023-12-08T02:54:48.230Z,101774.44
2023-12-08T02:57:18.267Z,101774.47
2023-12-08T02:59:47.277Z,101765.06
2023-12-08T03:02:16.268Z,101763.91
2023-12-08T03:04:45.084Z,101776.41
2023-12-08T03:07:14.505Z,101769.69
2023-12-08T03:09:43.210Z,101774.53
2023-12-08T03:12:11.909Z,101774.59
2023-12-08T03:14:42.077Z,101772.34
2023-12-08T03:17:10.662Z,101778.78
2023-12-08T03:19:39.262Z,101785.34
2023-12-08T03:22:07.829Z,101786.97
2023-12-08T03:24:36.483Z,101774.69
2023-12-08T03:27:05.829Z,101770.59
2023-12-08T03:29:34.611Z,101784.47
2023-12-08T03:32:04.856Z,101777.09
2023-12-08T03:34:33.750Z,101763.59
2023-12-08T03:37:02.714Z,101780.69
2023-12-08T03:39:31.380Z,101774.91
2023-12-08T03:42:00.089Z,101780.69
2023-12-08T03:44:28.718Z,101772.28
2023-12-08T03:46:57.439Z,101755.81
2023-12-08T03:49:27.610Z,101772.63
2023-12-08T03:51:56.315Z,101778.63
2023-12-08T03:54:24.843Z,101773.31
2023-12-08T03:56:53.402Z,101774.41
2023-12-08T03:59:22.007Z,101772.22
2023-12-08T04:01:53.912Z,101781.38
2023-12-08T04:04:26.218Z,101778.47
2023-12-08T04:06:58.258Z,101782.34
2023-12-08T04:09:28.846Z,101786.56
2023-12-08T04:12:25.422Z,101789.75
2023-12-08T04:14:54.286Z,101792.09
2023-12-08T04:17:23.184Z,101792.13
2023-12-08T04:19:51.952Z,101789.75
2023-12-08T04:22:22.118Z,101787.81
2023-12-08T04:24:51.015Z,101791.56
2023-12-08T04:27:19.718Z,101788.31
2023-12-08T04:29:48.316Z,101808.00
2023-12-08T04:32:17.246Z,101792.81
2023-12-08T04:34:46.047Z,101796.84
2023-12-08T04:37:15.791Z,101804.91
2023-12-08T04:39:46.010Z,101800.09
2023-12-08T04:42:14.754Z,101790.25
2023-12-08T04:44:43.508Z,101800.13
2023-12-08T04:47:12.137Z,101793.00
2023-12-08T04:49:41.985Z,101790.41
2023-12-08T04:52:11.387Z,101788.41
2023-12-08T04:54:39.971Z,101788.31
2023-12-08T04:57:10.123Z,101789.25
2023-12-08T04:59:39.815Z,101792.50
2023-12-08T05:02:08.572Z,101796.25
2023-12-08T05:04:37.161Z,101790.81
2023-12-08T05:07:06.097Z,101796.06
2023-12-08T05:09:34.766Z,101794.06
2023-12-08T05:12:03.548Z,101793.88
2023-12-08T05:14:33.787Z,101803.78
2023-12-08T05:17:02.415Z,101797.84
2023-12-08T05:19:31.133Z,101811.13
2023-12-08T05:21:59.888Z,101814.69
2023-12-08T05:24:28.459Z,101809.09
2023-12-08T05:26:57.158Z,101812.31
2023-12-08T05:29:25.942Z,101824.09
2023-12-08T05:32:14.469Z,101813.47
2023-12-08T05:34:43.477Z,101811.53
2023-12-08T05:37:12.107Z,101816.19
2023-12-08T05:39:40.756Z,101816.41
2023-12-08T05:42:09.379Z,101813.19
2023-12-08T05:44:38.207Z,101812.84
2023-12-08T05:47:07.311Z,101808.47
2023-12-08T05:49:37.465Z,101801.03
2023-12-08T05:52:06.899Z,101803.44
2023-12-08T05:54:35.464Z,101804.91
2023-12-08T05:57:04.215Z,101804.34
2023-12-08T05:59:32.962Z,101805.50
2023-12-08T06:02:01.543Z,101802.88
2023-12-08T06:04:30.660Z,101796.44
2023-12-08T06:07:00.754Z,101797.19
2023-12-08T06:09:29.474Z,101804.59
2023-12-08T06:11:58.058Z,101808.13
2023-12-08T06:14:26.677Z,101799.91
2023-12-08T06:16:55.366Z,101785.97
2023-12-08T06:19:24.202Z,101803.44
2023-12-08T06:21:52.895Z,101794.47
2023-12-08T06:24:23.058Z,101790.66
2023-12-08T06:26:51.772Z,101787.72
2023-12-08T06:29:21.166Z,101784.31
2023-12-08T06:31:49.892Z,101788.19
2023-12-08T06:34:19.295Z,101771.53
2023-12-08T06:36:49.532Z,101784.44
2023-12-08T06:39:18.565Z,101780.38
2023-12-08T06:41:48.650Z,101775.94
2023-12-08T06:44:17.824Z,101769.84
2023-12-08T06:46:46.412Z,101775.53
2023-12-08T06:49:16.268Z,101777.38
2023-12-08T06:51:45.116Z,101781.53
2023-12-08T06:54:13.930Z,101767.94
2023-12-08T06:56:43.893Z,101783.94
2023-12-08T06:59:14.140Z,101786.78
2023-12-08T07:01:42.777Z,101790.13
2023-12-08T07:04:11.691Z,101782.88
2023-12-08T07:06:40.391Z,101792.47
2023-12-08T07:09:10.524Z,101784.94
2023-12-08T07:11:39.316Z,101781.56
2023-12-08T07:14:08.187Z,101777.16
2023-12-08T07:16:38.229Z,101779.75
2023-12-08T07:19:07.196Z,101777.88
2023-12-08T07:21:36.910Z,101774.31
2023-12-08T07:24:05.896Z,101768.72
2023-12-08T07:26:35.201Z,101773.75
2023-12-08T07:29:04.102Z,101772.41
2023-12-08T07:31:32.802Z,101784.16
2023-12-08T07:34:03.261Z,101780.41
2023-12-08T07:36:32.030Z,101778.88
2023-12-08T07:39:02.141Z,101776.09
2023-12-08T07:41:30.891Z,101778.34
2023-12-08T07:43:59.443Z,101787.41
2023-12-08T07:46:28.426Z,101778.22
2023-12-08T07:48:57.303Z,101786.97
2023-12-08T07:51:28.845Z,101778.34
2023-12-08T07:53:57.931Z,101781.13
2023-12-08T07:56:27.327Z,101769.00
2023-12-08T07:58:55.880Z,101767.38
2023-12-08T08:01:24.543Z,101774.63
2023-12-08T08:03:53.347Z,101765.69
2023-12-08T08:06:22.195Z,101776.72
2023-12-08T08:08:52.331Z,101766.53
2023-12-08T08:11:20.896Z,101769.13
2023-12-08T08:13:49.630Z,101776.41
2023-12-08T08:16:18.516Z,101769.84
2023-12-08T08:18:47.331Z,101766.09
2023-12-08T08:21:16.820Z,101765.88
2023-12-08T08:23:45.475Z,101768.69
2023-12-08T08:26:15.555Z,101775.59
2023-12-08T08:28:45.313Z,101773.44
2023-12-08T08:31:18.534Z,101766.69
2023-12-08T08:33:47.275Z,101761.22
2023-12-08T08:36:16.574Z,101766.81
2023-12-08T08:38:45.234Z,101767.41
2023-12-08T08:41:16.169Z,101764.59
2023-12-08T08:43:44.851Z,101750.06
2023-12-08T08:46:13.461Z,101746.19
2023-12-08T08:48:42.319Z,101744.03
2023-12-08T08:51:11.649Z,101734.47
2023-12-08T08:53:40.689Z,101738.66
2023-12-08T08:56:09.814Z,101728.69
2023-12-08T08:58:39.802Z,101741.72
2023-12-08T09:01:08.499Z,101734.97
2023-12-08T09:03:37.184Z,101743.84
2023-12-08T09:06:06.388Z,101737.78
2023-12-08T09:08:35.144Z,101737.34
2023-12-08T09:11:03.923Z,101736.06
2023-12-08T09:13:32.954Z,101740.44
2023-12-08T09:16:02.940Z,101743.53
2023-12-08T09:18:32.139Z,101738.97
2023-12-08T09:21:01.187Z,101734.78
2023-12-08T09:23:29.839Z,101732.38
2023-12-08T09:25:58.739Z,101735.31
2023-12-08T09:28:28.053Z,101722.28
2023-12-08T09:30:57.099Z,101722.88
2023-12-08T09:33:28.280Z,101724.44
2023-12-08T09:35:59.267Z,101722.03
2023-12-08T09:38:33.382Z,101731.41
2023-12-08T09:41:05.610Z,101726.44
2023-12-08T09:43:39.907Z,101720.53
2023-12-08T09:46:09.219Z,101722.81
2023-12-08T09:48:40.458Z,101706.41
2023-12-08T09:51:09.933Z,101711.81
2023-12-08T09:53:39.663Z,101705.38
2023-12-08T09:56:08.989Z,101697.72
2023-12-08T09:58:38.204Z,101705.63
2023-12-08T10:01:07.997Z,101705.06
2023-12-08T10:03:37.135Z,101708.88
2023-12-08T10:06:08.509Z,101696.13
2023-12-08T10:08:38.507Z,101704.97
2023-12-08T10:11:07.434Z,101705.78
2023-12-08T10:13:35.980Z,101708.28
2023-12-08T10:16:05.184Z,101706.88
2023-12-08T10:18:35.584Z,101695.69
2023-12-08T10:21:20.687Z,101698.44
2023-12-08T10:23:49.518Z,101695.38
2023-12-08T10:26:19.463Z,101694.13
2023-12-08T10:28:48.328Z,101684.50
2023-12-08T10:31:17.078Z,101692.69
2023-12-08T10:33:45.737Z,101680.34
2023-12-08T10:36:15.009Z,101679.28
2023-12-08T10:38:45.233Z,101675.16
2023-12-08T10:41:15.278Z,101675.53
2023-12-08T10:43:44.694Z,101673.59
2023-12-08T10:46:13.202Z,101679.94
2023-12-08T10:48:42.774Z,101666.94
2023-12-08T10:51:15.371Z,101662.88
2023-12-08T10:53:46.751Z,101671.38
2023-12-08T10:56:18.737Z,101672.06
2023-12-08T10:58:47.751Z,101674.94
2023-12-08T11:01:17.029Z,101672.91
2023-12-08T11:03:54.322Z,101667.78
2023-12-08T11:06:31.588Z,101676.25
2023-12-08T11:09:04.263Z,101681.25
2023-12-08T11:11:33.357Z,101682.69
2023-12-08T11:14:07.693Z,101685.03
2023-12-08T11:16:40.825Z,101672.97
2023-12-08T11:19:10.628Z,101679.97
2023-12-08T11:21:39.536Z,101679.97
2023-12-08T11:24:11.183Z,101678.72
2023-12-08T11:26:48.176Z,101669.66
2023-12-08T11:29:22.345Z,101684.06
2023-12-08T11:31:55.280Z,101675.84
2023-12-08T11:34:27.451Z,101671.97
2023-12-08T11:36:56.600Z,101672.22
2023-12-08T11:39:44.002Z,101656.72
2023-12-08T11:42:13.733Z,101667.97
2023-12-08T11:44:45.600Z,101662.38
2023-12-08T11:47:16.977Z,101659.72
2023-12-08T11:49:46.572Z,101657.94
2023-12-08T11:52:17.195Z,101659.53
2023-12-08T11:55:17.450Z,101654.16
2023-12-08T11:58:06.736Z,101648.19
2023-12-08T12:00:37.269Z,101642.66
2023-12-08T12:03:08.052Z,101644.34
2023-12-08T12:05:39.779Z,101650.53
2023-12-08T12:08:09.515Z,101650.06
2023-12-08T12:10:40.907Z,101651.63
2023-12-08T12:13:12.768Z,101660.06
2023-12-08T12:15:43.805Z,101676.81
2023-12-08T12:18:15.110Z,101675.22
2023-12-08T12:20:46.538Z,101657.69
2023-12-08T12:23:18.978Z,101663.72
2023-12-08T12:25:50.983Z,101663.91
2023-12-08T12:28:19.890Z,101659.06
2023-12-08T12:30:51.292Z,101649.28
2023-12-08T12:33:20.529Z,101653.06
2023-12-08T12:35:54.165Z,101650.75
2023-12-08T12:38:27.605Z,101644.50
2023-12-08T12:40:57.950Z,101650.94
2023-12-08T12:43:26.541Z,101658.88
2023-12-08T12:45:55.211Z,101644.13
2023-12-08T12:48:25.998Z,101656.28
2023-12-08T12:50:54.699Z,101653.97
2023-12-08T12:53:24.200Z,101654.47
2023-12-08T12:55:53.576Z,101650.47
2023-12-08T12:58:25.128Z,101646.94
2023-12-08T13:00:55.872Z,101656.56
2023-12-08T13:03:25.122Z,101655.09
2023-12-08T13:05:55.924Z,101653.28
2023-12-08T13:08:25.239Z,101653.13
2023-12-08T13:10:54.980Z,101642.84
2023-12-08T13:13:25.617Z,101649.09
2023-12-08T13:15:54.232Z,101645.69
2023-12-08T13:18:23.039Z,101648.44
2023-12-08T13:20:51.856Z,101643.50
2023-12-08T13:23:20.816Z,101647.38
2023-12-08T13:25:49.812Z,101638.66
2023-12-08T13:28:18.559Z,101640.03
2023-12-08T13:30:48.575Z,101635.91
2023-12-08T13:33:17.519Z,101644.13
2023-12-08T13:35:46.215Z,101635.72
2023-12-08T13:38:15.011Z,101642.31
2023-12-08T13:40:43.860Z,101635.50
2023-12-08T13:43:14.157Z,101642.69
2023-12-08T13:45:42.898Z,101643.56
2023-12-08T13:48:13.018Z,101637.31
2023-12-08T13:50:50.549Z,101633.41
2023-12-08T13:53:27.347Z,101637.56
2023-12-08T13:55:57.198Z,101647.56
2023-12-08T13:58:25.781Z,101647.53
2023-12-08T14:00:54.470Z,101630.13
2023-12-08T14:03:24.549Z,101642.03
2023-12-08T14:05:53.257Z,101632.44
2023-12-08T14:08:22.013Z,101642.41
2023-12-08T14:10:50.811Z,101642.94
2023-12-08T14:13:19.528Z,101659.88
2023-12-08T14:15:48.405Z,101660.44
2023-12-08T14:18:17.436Z,101651.00
2023-12-08T14:20:47.972Z,101665.28
2023-12-08T14:23:16.665Z,101655.50
2023-12-08T14:25:45.658Z,101659.59
2023-12-08T14:28:14.414Z,101651.59
2023-12-08T14:30:43.189Z,101657.56
2023-12-08T14:33:12.023Z,101659.97
2023-12-08T14:35:41.754Z,101650.44
2023-12-08T14:38:15.388Z,101650.84
2023-12-08T14:40:44.295Z,101655.28
2023-12-08T14:43:12.865Z,101641.94
2023-12-08T14:45:41.444Z,101646.75
2023-12-08T14:48:10.200Z,101656.72
2023-12-08T14:50:39.258Z,101658.16
2023-12-08T14:53:08.015Z,101669.72
2023-12-08T14:55:38.063Z,101675.66
2023-12-08T14:58:07.249Z,101674.59
2023-12-08T15:00:36.403Z,101662.63
2023-12-08T15:03:07.547Z,101665.50
2023-12-08T15:05:39.260Z,101653.53
2023-12-08T15:08:07.932Z,101650.69
2023-12-08T15:10:37.851Z,101638.56
2023-12-08T15:13:06.526Z,101641.38
2023-12-08T15:15:43.368Z,101640.94
2023-12-08T15:18:17.693Z,101631.47
2023-12-08T15:20:53.406Z,101629.72
2023-12-08T15:23:24.883Z,101635.22
2023-12-08T15:25:55.288Z,101644.66
2023-12-08T15:28:24.133Z,101637.72
2023-12-08T15:30:52.777Z,101644.31
2023-12-08T15:33:21.928Z,101640.75
2023-12-08T15:35:50.733Z,101646.13
2023-12-08T15:38:19.401Z,101640.41
2023-12-08T15:40:48.257Z,101638.44
2023-12-08T15:43:18.656Z,101632.03
2023-12-08T15:45:47.441Z,101630.41
2023-12-08T15:48:16.098Z,101626.69
2023-12-08T15:50:45.370Z,101610.78
2023-12-08T15:53:14.178Z,101623.66
2023-12-08T15:55:43.293Z,101621.16
2023-12-08T15:58:13.322Z,101618.66
2023-12-08T16:00:44.207Z,101619.69
2023-12-08T16:03:12.858Z,101609.56
2023-12-08T16:05:42.551Z,101614.53
2023-12-08T16:08:11.126Z,101610.78
2023-12-08T16:10:39.714Z,101618.28
2023-12-08T16:13:08.396Z,101609.56
2023-12-08T16:15:37.195Z,101602.78
2023-12-08T16:18:07.484Z,101601.91
2023-12-08T16:20:36.662Z,101600.84
2023-12-08T16:23:05.871Z,101599.03
2023-12-08T16:25:34.626Z,101610.78
2023-12-08T16:28:03.450Z,101598.88
2023-12-08T16:30:32.131Z,101589.63
2023-12-08T16:33:00.893Z,101603.31
2023-12-08T16:35:31.662Z,101593.53
2023-12-08T16:38:00.749Z,101599.06
2023-12-08T16:40:29.476Z,101593.16
2023-12-08T16:42:58.427Z,101592.28
2023-12-08T16:45:27.082Z,101583.38
2023-12-08T16:48:01.251Z,101589.78
2023-12-08T16:50:31.709Z,101585.88
2023-12-08T16:53:00.502Z,101585.53
2023-12-08T16:56:02.130Z,101578.19
2023-12-08T16:58:30.885Z,101586.06
2023-12-08T17:00:59.639Z,101584.06
2023-12-08T17:03:28.734Z,101573.59
2023-12-08T17:05:59.049Z,101578.56
2023-12-08T17:08:27.647Z,101574.63
2023-12-08T17:10:56.300Z,101570.19
2023-12-08T17:13:24.955Z,101573.94
2023-12-08T17:15:53.519Z,101576.25
2023-12-08T17:18:22.301Z,101570.38
2023-12-08T17:20:50.887Z,101571.09
2023-12-08T17:23:21.046Z,101571.97
2023-12-08T17:25:49.701Z,101574.66
2023-12-08T17:28:18.228Z,101570.91
2023-12-08T17:30:47.101Z,101574.47
2023-12-08T17:33:16.316Z,101566.81
2023-12-08T17:35:46.532Z,101568.75
2023-12-08T17:38:17.159Z,101563.94
2023-12-08T17:40:47.543Z,101568.38
2023-12-08T17:43:16.158Z,101566.59
2023-12-08T17:45:44.812Z,101563.94
2023-12-08T17:48:13.523Z,101557.69
2023-12-08T17:50:42.198Z,101567.13
2023-12-08T17:53:10.833Z,101558.22
2023-12-08T17:55:39.522Z,101559.13
2023-12-08T17:58:10.591Z,101553.56
2023-12-08T18:00:39.465Z,101549.44
2023-12-08T18:03:08.317Z,101551.09
2023-12-08T18:05:37.196Z,101563.72
2023-12-08T18:08:06.552Z,101558.19
2023-12-08T18:10:35.201Z,101559.09
2023-12-08T18:13:04.565Z,101566.44
2023-12-08T18:15:34.713Z,101559.72
2023-12-08T18:18:03.687Z,101562.28
2023-12-08T18:20:32.690Z,101557.66
2023-12-08T18:23:01.991Z,101557.53
2023-12-08T18:25:30.602Z,101544.84
2023-12-08T18:28:15.106Z,101553.09
2023-12-08T18:30:51.448Z,101542.63
2023-12-08T18:33:20.370Z,101557.53
2023-12-08T18:35:49.120Z,101558.72
2023-12-08T18:38:17.848Z,101555.81
2023-12-08T18:40:46.528Z,101558.69
2023-12-08T18:43:15.291Z,101567.25
2023-12-08T18:45:43.889Z,101554.72
2023-12-08T18:48:14.030Z,101564.91
2023-12-08T18:50:42.800Z,101567.69
2023-12-08T18:53:11.442Z,101564.47
2023-12-08T18:55:40.752Z,101568.94
2023-12-08T18:58:10.065Z,101571.41
2023-12-08T19:00:38.731Z,101560.16
2023-12-08T19:03:07.556Z,101573.03
2023-12-08T19:05:38.593Z,101564.97
2023-12-08T19:08:07.328Z,101566.75
2023-12-08T19:10:37.133Z,101555.56
2023-12-08T19:13:06.164Z,101550.59
2023-12-08T19:15:34.871Z,101555.53
2023-12-08T19:18:03.965Z,101553.25
2023-12-08T19:20:32.743Z,101556.59
2023-12-08T19:23:02.695Z,101559.66
2023-12-08T19:25:31.614Z,101558.41
2023-12-08T19:28:00.445Z,101552.97
2023-12-08T19:30:29.242Z,101545.06
2023-12-08T19:32:58.248Z,101551.84
2023-12-08T19:35:27.092Z,101548.81
2023-12-08T19:37:55.700Z,101541.41
2023-12-08T19:40:27.011Z,101550.22
2023-12-08T19:42:55.685Z,101550.94
2023-12-08T19:45:24.300Z,101546.78
2023-12-08T19:47:54.217Z,101549.13
2023-12-08T19:50:25.593Z,101549.88
2023-12-08T19:52:54.358Z,101552.19
2023-12-08T19:55:23.490Z,101547.72
2023-12-08T19:57:54.545Z,101539.91
2023-12-08T20:00:23.535Z,101545.22
2023-12-08T20:02:53.189Z,101539.84
2023-12-08T20:05:23.136Z,101529.47
2023-12-08T20:07:51.800Z,101549.28
2023-12-08T20:10:20.665Z,101536.25
2023-12-08T20:12:49.391Z,101539.19
2023-12-08T20:15:27.670Z,101532.91
2023-12-08T20:17:59.225Z,101529.41
2023-12-08T20:20:28.103Z,101529.34
2023-12-08T20:22:58.029Z,101528.44
2023-12-08T20:25:27.224Z,101525.41
2023-12-08T20:27:56.709Z,101519.22
2023-12-08T20:30:27.304Z,101518.53
2023-12-08T20:32:57.306Z,101508.50
2023-12-08T20:35:27.572Z,101516.50
2023-12-08T20:37:56.539Z,101517.16
2023-12-08T20:40:25.156Z,101515.44
2023-12-08T20:42:54.275Z,101516.53
2023-12-08T20:45:24.144Z,101520.53
2023-12-08T20:47:54.230Z,101501.19
2023-12-08T20:50:24.317Z,101506.72
2023-12-08T20:52:54.002Z,101510.69
2023-12-08T20:55:22.738Z,101514.91
2023-12-08T20:57:51.950Z,101506.19
2023-12-08T21:00:20.748Z,101506.34
2023-12-08T21:03:03.263Z,101519.56
2023-12-08T21:05:33.580Z,101521.53
2023-12-08T21:08:03.975Z,101520.25
2023-12-08T21:10:34.025Z,101515.41
2023-12-08T21:13:02.713Z,101518.53
2023-12-08T21:15:33.173Z,101516.94
2023-12-08T21:18:02.079Z,101518.09
2023-12-08T21:20:32.318Z,101518.66
2023-12-08T21:23:01.325Z,101512.94
2023-12-08T21:25:30.015Z,101509.91
2023-12-08T21:27:58.609Z,101500.78
2023-12-08T21:30:27.219Z,101506.91
2023-12-08T21:32:55.959Z,101494.91
2023-12-08T21:35:24.750Z,101497.97
2023-12-08T21:37:55.167Z,101508.34
2023-12-08T21:40:23.777Z,101493.50
2023-12-08T21:42:54.525Z,101498.50
2023-12-08T21:45:23.606Z,101495.16
2023-12-08T21:48:10.899Z,101488.34
2023-12-08T21:50:39.687Z,101487.44
2023-12-08T21:53:10.135Z,101490.31
2023-12-08T21:55:39.028Z,101491.81
2023-12-08T21:58:07.806Z,101492.34
2023-12-08T22:00:36.651Z,101497.56
2023-12-08T22:03:06.158Z,101491.88
2023-12-08T22:05:35.074Z,101477.78
2023-12-08T22:08:03.791Z,101486.34
2023-12-08T22:10:33.795Z,101486.22
2023-12-08T22:13:02.649Z,101490.31
2023-12-08T22:15:31.288Z,101497.25
2023-12-08T22:18:00.442Z,101486.97
2023-12-08T22:20:29.337Z,101486.03
2023-12-08T22:22:57.881Z,101491.19
2023-12-08T22:25:25.452Z,101479.56
2023-12-08T22:27:55.607Z,101479.94
2023-12-08T22:30:24.209Z,101479.31
2023-12-08T22:32:53.214Z,101479.41
2023-12-08T22:35:21.903Z,101475.94
2023-12-08T22:37:50.827Z,101470.66
2023-12-08T22:40:19.436Z,101477.59
2023-12-08T22:42:48.620Z,101471.38
2023-12-08T22:45:18.663Z,101474.50
2023-12-08T22:47:48.790Z,101475.34
2023-12-08T22:50:17.617Z,101469.28
2023-12-08T22:52:46.551Z,101455.31
2023-12-08T22:55:15.178Z,101466.63
2023-12-08T22:57:43.899Z,101473.38
2023-12-08T23:00:20.377Z,101468.00
2023-12-08T23:02:50.673Z,101458.56
2023-12-08T23:05:19.455Z,101465.91
2023-12-08T23:07:48.145Z,101462.25
2023-12-08T23:10:17.287Z,101455.16
2023-12-08T23:12:46.201Z,101478.94
2023-12-08T23:15:14.901Z,101464.16
2023-12-08T23:17:44.927Z,101467.09
2023-12-08T23:20:15.378Z,101462.63
2023-12-08T23:22:44.160Z,101467.69
2023-12-08T23:25:12.784Z,101476.13
2023-12-08T23:27:41.371Z,101471.63
2023-12-08T23:30:11.010Z,101478.53
2023-12-08T23:32:39.676Z,101475.91
2023-12-08T23:35:09.184Z,101476.06
2023-12-08T23:37:39.254Z,101475.19
2023-12-08T23:40:09.009Z,101479.09
2023-12-08T23:42:37.710Z,101479.66
2023-12-08T23:45:07.787Z,101464.16
2023-12-08T23:47:36.612Z,101471.63
2023-12-08T23:50:05.787Z,101459.66
2023-12-08T23:52:34.478Z,101469.63
2023-12-08T23:55:04.844Z,101471.41
2023-12-08T23:57:34.041Z,101467.31
